Time;durP1;ratioP1;P1;durP2;ratioP2;P2;SDS_P1;SDS_P2;PMS_P1;PMS_P2;Temp;Humidity;BMP_temperature;BMP_pressure;BME280_temperature;BME280_humidity;BME280_pressure;Samples;Min_cycle;Max_cycle;Signal;HPM_P1;HPM_P2
2023/08/07 00:00:24;;;;;;;4.63;1.88;;;28.30;99.90;;;;;;5010880;28;20474;-51
2023/08/07 00:02:50;;;;;;;3.67;1.50;;;28.30;99.90;;;;;;5010148;28;20075;-51
2023/08/07 00:05:16;;;;;;;3.63;1.20;;;28.30;99.90;;;;;;5011470;28;20497;-50
2023/08/07 00:07:43;;;;;;;2.80;1.40;;;28.30;99.90;;;;;;5011439;28;20492;-51
2023/08/07 00:10:09;;;;;;;7.60;1.17;;;28.30;99.90;;;;;;5011081;28;20109;-51
2023/08/07 00:12:35;;;;;;;2.45;1.17;;;28.30;99.90;;;;;;5010197;28;20054;-50
2023/08/07 00:15:02;;;;;;;7.10;1.38;;;28.30;99.90;;;;;;5009971;28;20111;-50
2023/08/07 00:17:28;;;;;;;2.65;1.50;;;28.30;99.90;;;;;;5011269;28;20133;-50
2023/08/07 00:19:53;;;;;;;2.88;1.70;;;28.20;99.90;;;;;;4998578;28;20025;-50
2023/08/07 00:22:19;;;;;;;4.85;1.25;;;28.20;99.90;;;;;;5011362;28;20025;-49
2023/08/07 00:24:45;;;;;;;6.70;1.77;;;28.20;99.90;;;;;;5010969;28;20534;-49
2023/08/07 00:27:12;;;;;;;3.92;1.30;;;28.20;99.90;;;;;;5011265;28;20021;-49
2023/08/07 00:29:38;;;;;;;7.65;4.72;;;28.20;99.90;;;;;;4998170;28;20029;-50
2023/08/07 00:32:04;;;;;;;3.65;1.67;;;28.20;99.90;;;;;;5011234;28;20030;-49
2023/08/07 00:34:30;;;;;;;4.43;1.98;;;28.20;99.90;;;;;;5013227;28;20335;-50
2023/08/07 00:36:56;;;;;;;3.85;1.65;;;28.20;99.90;;;;;;5014902;28;20056;-49
2023/08/07 00:39:22;;;;;;;8.23;1.45;;;28.20;99.90;;;;;;5014825;28;20018;-49
2023/08/07 00:41:48;;;;;;;2.42;1.20;;;28.20;99.90;;;;;;5014719;28;20080;-50
2023/08/07 00:44:13;;;;;;;3.65;1.30;;;28.20;99.90;;;;;;5014506;28;20113;-49
2023/08/07 00:46:40;;;;;;;7.38;1.48;;;28.20;99.90;;;;;;5014705;28;20028;-49
2023/08/07 00:49:07;;;;;;;5.47;1.20;;;28.20;99.90;;;;;;5000432;28;20453;-49
2023/08/07 00:51:33;;;;;;;;;;;28.20;99.90;;;;;;5015088;28;20471;-49
2023/08/07 00:54:02;;;;;;;2.45;1.60;;;28.20;99.90;;;;;;5013561;28;19912;-49
2023/08/07 00:56:29;;;;;;;5.35;1.77;;;28.20;99.90;;;;;;5002371;28;20026;-49
2023/08/07 00:58:55;;;;;;;3.08;1.10;;;28.20;99.90;;;;;;5014753;28;20018;-50
2023/08/07 01:01:20;;;;;;;2.33;0.93;;;28.20;99.90;;;;;;5014758;28;20157;-50
2023/08/07 01:03:46;;;;;;;3.25;1.30;;;28.10;99.90;;;;;;5014363;28;20505;-49
2023/08/07 01:06:12;;;;;;;2.10;1.35;;;28.20;99.90;;;;;;5001251;28;20029;-49
2023/08/07 01:08:38;;;;;;;1.83;1.25;;;28.20;99.90;;;;;;5014116;28;20478;-49
2023/08/07 01:11:28;;;;;;;3.55;1.15;;;28.20;99.90;;;;;;5014012;28;20080;-48
2023/08/07 01:14:17;;;;;;;5.60;1.35;;;28.10;99.90;;;;;;5014310;28;20026;-49
2023/08/07 01:17:07;;;;;;;3.78;1.20;;;28.10;99.90;;;;;;5013928;28;20026;-54
2023/08/07 01:19:35;;;;;;;2.38;1.30;;;28.20;99.90;;;;;;5000759;28;20022;-51
2023/08/07 01:22:17;;;;;;;;;;;28.10;99.90;;;;;;5014436;28;20069;-50
2023/08/07 01:24:44;;;;;;;1.98;1.10;;;28.20;99.90;;;;;;5011168;28;20365;-51
2023/08/07 01:27:19;;;;;;;2.70;1.40;;;28.10;99.90;;;;;;5013615;28;20030;-51
2023/08/07 01:30:10;;;;;;;3.47;1.42;;;28.10;99.90;;;;;;5013774;28;20029;-50
2023/08/07 01:32:47;;;;;;;3.28;1.17;;;28.10;99.90;;;;;;5013902;28;20025;-50
2023/08/07 01:35:15;;;;;;;3.42;1.40;;;28.10;99.90;;;;;;5013534;28;20022;-50
2023/08/07 01:37:43;;;;;;;2.67;1.30;;;28.10;99.90;;;;;;5013456;28;20025;-50
2023/08/07 01:40:10;;;;;;;6.13;1.60;;;28.10;99.90;;;;;;5013786;28;20057;-49
2023/08/07 01:42:37;;;;;;;2.55;1.48;;;28.10;99.90;;;;;;5013240;28;20112;-50
2023/08/07 01:45:04;;;;;;;2.10;1.17;;;28.10;99.90;;;;;;5013006;28;20029;-50
2023/08/07 01:47:30;;;;;;;1.55;1.38;;;28.10;99.90;;;;;;5013058;28;20034;-50
2023/08/07 01:49:56;;;;;;;3.22;1.38;;;28.10;99.90;;;;;;4996284;28;20421;-50
2023/08/07 01:52:22;;;;;;;8.90;1.48;;;28.10;99.90;;;;;;5000995;28;20030;-50
2023/08/07 01:54:48;;;;;;;5.07;1.60;;;28.10;99.90;;;;;;5012727;28;20486;-50
2023/08/07 01:57:14;;;;;;;6.55;1.50;;;28.10;99.90;;;;;;5013583;28;20108;-51
2023/08/07 01:59:39;;;;;;;4.72;1.27;;;28.10;99.90;;;;;;5000155;28;20421;-49
2023/08/07 02:02:05;;;;;;;4.57;2.05;;;28.10;99.90;;;;;;5013542;28;20090;-48
2023/08/07 02:04:31;;;;;;;10.45;1.80;;;28.10;99.90;;;;;;5012971;28;20389;-49
2023/08/07 02:06:57;;;;;;;4.03;1.38;;;28.10;99.90;;;;;;5013379;28;20026;-49
2023/08/07 02:09:22;;;;;;;3.47;1.63;;;28.10;99.90;;;;;;5012768;28;20177;-49
2023/08/07 02:11:48;;;;;;;11.75;1.35;;;28.10;99.90;;;;;;5011679;28;20018;-49
2023/08/07 02:14:14;;;;;;;6.45;1.42;;;28.10;99.90;;;;;;5012948;28;20466;-50
2023/08/07 02:16:40;;;;;;;5.28;1.23;;;28.10;99.90;;;;;;5011716;28;20026;-50
2023/08/07 02:19:05;;;;;;;5.32;1.35;;;28.10;99.90;;;;;;5011459;28;20029;-51
2023/08/07 02:21:32;;;;;;;2.97;1.10;;;28.10;99.90;;;;;;5001382;28;20489;-50
2023/08/07 02:23:57;;;;;;;4.10;1.23;;;28.10;99.90;;;;;;5012365;28;20053;-50
2023/08/07 02:26:23;;;;;;;4.40;1.20;;;28.10;99.90;;;;;;5012863;28;20026;-50
2023/08/07 02:28:49;;;;;;;5.28;1.50;;;28.00;99.90;;;;;;5012736;28;20022;-50
2023/08/07 02:31:15;;;;;;;3.40;1.38;;;28.00;99.90;;;;;;5011274;28;20029;-50
2023/08/07 02:33:41;;;;;;;3.90;1.40;;;28.00;99.90;;;;;;5011577;28;20025;-50
2023/08/07 02:36:07;;;;;;;3.42;1.30;;;28.00;99.90;;;;;;5011295;28;20054;-50
2023/08/07 02:38:33;;;;;;;2.58;1.00;;;28.00;99.90;;;;;;5012826;28;20014;-50
2023/08/07 02:40:59;;;;;;;2.67;1.10;;;28.00;99.90;;;;;;5011363;28;20105;-50
2023/08/07 02:43:27;;;;;;;4.78;1.38;;;28.00;99.90;;;;;;5012333;28;20129;-50
2023/08/07 02:45:52;;;;;;;;;;;28.00;99.90;;;;;;5012706;28;20556;-49
2023/08/07 02:48:19;;;;;;;2.92;1.08;;;28.00;99.90;;;;;;5012668;28;19910;-50
2023/08/07 02:50:44;;;;;;;2.28;0.93;;;28.00;99.90;;;;;;5012514;28;20144;-49
2023/08/07 02:53:11;;;;;;;5.72;1.45;;;28.00;99.90;;;;;;5012486;28;20423;-50
2023/08/07 02:55:37;;;;;;;2.45;1.20;;;28.00;99.90;;;;;;5012272;28;20071;-50
2023/08/07 02:58:03;;;;;;;4.45;1.83;;;28.00;99.90;;;;;;5011709;28;20478;-50
2023/08/07 03:00:29;;;;;;;3.25;1.75;;;28.00;99.90;;;;;;5024666;23;20513;-51
2023/08/07 03:02:54;;;;;;;4.35;1.70;;;28.00;99.90;;;;;;5009310;28;20042;-50
2023/08/07 03:05:20;;;;;;;4.57;1.40;;;28.00;99.90;;;;;;5011973;28;20481;-51
2023/08/07 03:07:46;;;;;;;4.63;1.48;;;28.00;99.90;;;;;;5011617;28;20421;-51
2023/08/07 03:10:11;;;;;;;6.07;1.85;;;28.00;99.90;;;;;;5010766;28;20037;-51
2023/08/07 03:12:38;;;;;;;2.85;1.17;;;28.00;99.90;;;;;;5011610;28;20030;-51
2023/08/07 03:15:05;;;;;;;3.63;1.25;;;28.00;99.90;;;;;;5011786;28;20026;-51
2023/08/07 03:17:31;;;;;;;;;;;27.90;99.90;;;;;;5012045;28;20429;-51
2023/08/07 03:19:56;;;;;;;4.57;1.25;;;27.90;99.90;;;;;;5011377;28;19909;-51
2023/08/07 03:22:22;;;;;;;2.97;1.20;;;27.90;99.90;;;;;;5011243;28;20103;-50
2023/08/07 03:24:48;;;;;;;4.07;1.58;;;27.90;99.90;;;;;;5011534;28;20030;-51
2023/08/07 03:27:15;;;;;;;3.40;1.35;;;27.90;99.90;;;;;;5011524;28;20158;-51
2023/08/07 03:29:41;;;;;;;4.40;1.58;;;27.90;99.90;;;;;;5011621;28;20036;-51
2023/08/07 03:32:07;;;;;;;2.70;0.82;;;27.80;99.90;;;;;;5011591;28;20101;-51
2023/08/07 03:34:32;;;;;;;7.28;1.25;;;27.80;99.90;;;;;;4998525;28;20022;-51
2023/08/07 03:37:01;;;;;;;5.40;1.17;;;27.80;99.90;;;;;;5011715;28;20021;-51
2023/08/07 03:39:26;;;;;;;5.85;1.33;;;27.70;99.90;;;;;;4982646;28;20811;-51
2023/08/07 03:41:52;;;;;;;5.78;1.10;;;27.60;99.90;;;;;;5011207;28;20101;-51
2023/08/07 03:44:18;;;;;;;4.90;1.30;;;27.70;99.90;;;;;;5011063;28;20536;-51
2023/08/07 03:46:44;;;;;;;4.38;1.40;;;27.60;99.90;;;;;;5000512;28;20018;-50
2023/08/07 03:49:09;;;;;;;8.18;1.48;;;27.60;99.90;;;;;;5008007;28;20079;-51
2023/08/07 03:51:35;;;;;;;5.30;1.33;;;27.60;99.90;;;;;;5011571;28;20033;-51
2023/08/07 03:54:01;;;;;;;5.93;1.38;;;27.60;99.90;;;;;;5011105;28;20141;-51
2023/08/07 03:56:27;;;;;;;4.68;1.08;;;27.50;99.90;;;;;;5011246;28;20045;-51
2023/08/07 03:58:53;;;;;;;9.50;1.20;;;27.50;99.90;;;;;;5011233;28;20022;-51
2023/08/07 04:01:19;;;;;;;4.75;1.83;;;27.50;99.90;;;;;;5011556;28;20034;-51
2023/08/07 04:03:48;;;;;;;14.90;1.70;;;27.50;99.90;;;;;;5011177;28;20030;-51
2023/08/07 04:06:15;;;;;;;9.82;1.25;;;27.40;99.90;;;;;;5004928;28;20029;-51
2023/08/07 04:08:42;;;;;;;5.38;1.45;;;27.40;99.90;;;;;;5005622;28;20013;-52
2023/08/07 04:11:08;;;;;;;7.57;1.25;;;27.40;99.90;;;;;;5015184;28;20021;-51
2023/08/07 04:13:34;;;;;;;7.03;1.60;;;27.40;99.90;;;;;;5015186;28;20030;-52
2023/08/07 04:16:02;;;;;;;7.05;1.50;;;27.30;99.90;;;;;;5014801;28;20021;-51
2023/08/07 04:18:28;;;;;;;4.47;1.45;;;27.30;99.90;;;;;;5014860;28;20022;-51
2023/08/07 04:20:54;;;;;;;3.58;1.75;;;27.30;99.90;;;;;;5014616;28;20100;-51
2023/08/07 04:23:20;;;;;;;3.53;1.37;;;27.30;99.90;;;;;;5014695;28;20536;-51
2023/08/07 04:25:50;;;;;;;9.05;1.95;;;27.20;99.90;;;;;;5014474;28;20091;-51
2023/08/07 04:28:16;;;;;;;6.90;1.90;;;27.30;99.90;;;;;;5014643;28;20137;-51
2023/08/07 04:30:43;;;;;;;4.70;1.23;;;27.20;99.90;;;;;;5014694;28;20026;-52
2023/08/07 04:33:09;;;;;;;4.13;1.33;;;27.20;99.90;;;;;;5014646;28;20028;-51
2023/08/07 04:35:35;;;;;;;5.78;1.58;;;27.20;99.90;;;;;;5014556;28;20038;-51
2023/08/07 04:38:02;;;;;;;6.88;1.85;;;27.20;99.90;;;;;;5014273;28;20075;-51
2023/08/07 04:40:28;;;;;;;7.85;1.25;;;27.20;99.90;;;;;;5014393;28;20486;-52
2023/08/07 04:42:54;;;;;;;6.32;2.08;;;27.20;99.90;;;;;;5014255;28;20152;-51
2023/08/07 04:45:20;;;;;;;3.47;1.40;;;27.30;99.90;;;;;;5014386;28;20120;-51
2023/08/07 04:47:46;;;;;;;7.20;1.40;;;27.20;99.90;;;;;;5014092;28;20014;-52
2023/08/07 04:50:11;;;;;;;5.97;1.85;;;27.20;99.90;;;;;;5014269;28;20605;-51
2023/08/07 04:52:37;;;;;;;4.18;1.38;;;27.20;99.90;;;;;;5014472;28;20037;-51
2023/08/07 04:55:04;;;;;;;2.55;1.25;;;27.20;99.90;;;;;;5014027;28;20018;-52
2023/08/07 04:57:29;;;;;;;5.17;1.43;;;27.20;99.90;;;;;;5014047;28;20021;-51
2023/08/07 04:59:55;;;;;;;4.63;1.10;;;27.20;99.90;;;;;;5013903;28;20316;-51
2023/08/07 05:02:21;;;;;;;4.32;1.15;;;27.20;99.90;;;;;;5014164;28;20409;-51
2023/08/07 05:04:47;;;;;;;3.00;1.30;;;27.20;99.90;;;;;;5028968;28;20025;-51
2023/08/07 05:07:13;;;;;;;5.85;1.50;;;27.20;99.90;;;;;;5013937;28;20101;-51
2023/08/07 05:09:38;;;;;;;8.20;1.77;;;27.20;99.90;;;;;;5014002;28;20022;-51
2023/08/07 05:12:06;;;;;;;3.97;1.45;;;27.20;99.90;;;;;;5014088;28;20442;-51
2023/08/07 05:14:32;;;;;;;7.22;1.40;;;27.20;99.90;;;;;;5013438;28;20049;-51
2023/08/07 05:16:59;;;;;;;7.18;1.80;;;27.30;99.90;;;;;;5013963;28;20070;-51
2023/08/07 05:19:25;;;;;;;11.02;4.97;;;27.30;99.90;;;;;;5013079;28;20026;-51
2023/08/07 05:21:51;;;;;;;9.18;3.28;;;27.30;99.90;;;;;;5013165;28;20141;-51
2023/08/07 05:24:17;;;;;;;16.00;2.15;;;27.20;99.90;;;;;;5013446;28;20026;-50
2023/08/07 05:26:43;;;;;;;9.88;2.53;;;27.30;99.90;;;;;;5013876;28;20527;-50
2023/08/07 05:29:09;;;;;;;16.58;4.63;;;27.20;99.90;;;;;;5000712;28;20374;-50
2023/08/07 05:31:36;;;;;;;17.00;3.30;;;27.20;99.90;;;;;;5013570;28;20022;-50
2023/08/07 05:34:02;;;;;;;14.50;5.05;;;27.20;99.90;;;;;;5013512;28;20022;-51
2023/08/07 05:36:29;;;;;;;14.25;3.25;;;27.20;99.90;;;;;;5013365;28;20405;-51
2023/08/07 05:38:55;;;;;;;;;;;27.20;99.90;;;;;;5013602;28;20373;-51
2023/08/07 05:41:21;;;;;;;25.25;6.10;;;27.20;99.90;;;;;;5013092;28;20001;-50
2023/08/07 05:43:46;;;;;;;19.30;4.85;;;27.20;99.90;;;;;;5013188;28;20033;-50
2023/08/07 05:46:12;;;;;;;16.48;5.75;;;27.20;99.90;;;;;;5013459;28;20362;-51
2023/08/07 05:48:38;;;;;;;11.27;3.17;;;27.20;99.90;;;;;;5013194;28;20018;-51
2023/08/07 05:51:04;;;;;;;15.82;4.40;;;27.20;99.90;;;;;;4998811;28;20382;-50
2023/08/07 05:53:30;;;;;;;23.65;3.50;;;27.20;99.90;;;;;;5013092;28;20124;-49
2023/08/07 05:55:56;;;;;;;14.75;4.38;;;27.20;99.90;;;;;;5012684;28;20112;-49
2023/08/07 05:58:22;;;;;;;29.65;4.82;;;27.20;99.90;;;;;;5012802;28;20018;-49
2023/08/07 06:00:47;;;;;;;18.08;2.22;;;27.20;99.90;;;;;;5012483;28;20500;-49
2023/08/07 06:03:13;;;;;;;11.77;2.88;;;27.30;99.90;;;;;;5012832;28;20080;-50
2023/08/07 06:05:40;;;;;;;14.18;2.30;;;27.40;99.90;;;;;;5012583;28;20068;-49
2023/08/07 06:08:05;;;;;;;25.27;5.60;;;27.40;99.90;;;;;;5012618;28;20020;-49
2023/08/07 06:10:31;;;;;;;23.40;5.88;;;27.50;99.90;;;;;;5012319;28;20448;-49
2023/08/07 06:12:57;;;;;;;35.25;9.75;;;27.50;99.90;;;;;;5012774;28;20033;-49
2023/08/07 06:15:23;;;;;;;19.95;5.45;;;27.50;99.90;;;;;;5012682;28;20037;-49
2023/08/07 06:17:51;;;;;;;33.83;6.47;;;27.60;99.90;;;;;;5012119;28;20070;-49
2023/08/07 06:20:16;;;;;;;24.10;5.43;;;27.60;99.90;;;;;;5012435;28;20063;-49
2023/08/07 06:22:42;;;;;;;19.25;3.28;;;27.60;99.90;;;;;;4999166;28;20151;-49
2023/08/07 06:25:08;;;;;;;17.25;8.05;;;27.70;99.90;;;;;;5012367;28;20030;-49
2023/08/07 06:27:34;;;;;;;20.42;4.25;;;27.70;99.90;;;;;;5012232;28;20030;-49
2023/08/07 06:30:00;;;;;;;15.35;2.30;;;27.80;99.90;;;;;;5012452;28;20145;-49
2023/08/07 06:32:26;;;;;;;12.63;2.78;;;27.80;99.90;;;;;;5012321;28;20030;-49
2023/08/07 06:34:53;;;;;;;11.65;3.28;;;27.80;99.90;;;;;;5012465;28;20452;-49
2023/08/07 06:37:19;;;;;;;7.72;3.30;;;27.90;99.90;;;;;;5012772;28;20451;-49
2023/08/07 06:39:46;;;;;;;5.47;1.60;;;28.00;99.90;;;;;;5012156;28;20485;-49
2023/08/07 06:42:12;;;;;;;6.67;2.50;;;28.00;99.90;;;;;;5000867;28;20257;-49
2023/08/07 06:44:38;;;;;;;5.40;2.60;;;28.00;99.90;;;;;;5010054;28;20480;-49
2023/08/07 06:47:04;;;;;;;7.97;3.22;;;28.10;99.90;;;;;;5011945;28;20022;-49
2023/08/07 06:49:31;;;;;;;6.68;3.30;;;28.10;99.90;;;;;;5011998;28;20026;-49
2023/08/07 06:51:57;;;;;;;;;;;28.20;99.90;;;;;;5012353;28;20047;-48
2023/08/07 06:54:23;;;;;;;10.53;5.83;;;28.20;99.90;;;;;;5012019;28;20400;-49
2023/08/07 06:56:49;;;;;;;11.80;4.03;;;28.30;99.90;;;;;;5011958;28;20122;-49
2023/08/07 06:59:15;;;;;;;14.70;8.60;;;28.30;99.90;;;;;;5026904;28;20386;-49
2023/08/07 07:01:41;;;;;;;9.52;5.57;;;28.30;99.90;;;;;;5011733;28;20548;-49
2023/08/07 07:04:06;;;;;;;13.65;6.25;;;28.40;99.90;;;;;;5010180;28;20111;-49
2023/08/07 07:06:33;;;;;;;10.23;6.68;;;28.40;99.90;;;;;;5012065;28;20032;-48
2023/08/07 07:08:59;;;;;;;12.50;5.80;;;28.40;99.90;;;;;;4999578;28;20486;-48
2023/08/07 07:11:25;;;;;;;11.80;4.20;;;28.50;99.90;;;;;;5010333;28;20014;-50
2023/08/07 07:13:51;;;;;;;9.68;5.95;;;28.50;99.90;;;;;;5011726;28;20025;-48
2023/08/07 07:16:20;;;;;;;7.53;4.38;;;28.60;99.90;;;;;;5011271;28;20064;-49
2023/08/07 07:18:46;;;;;;;8.90;2.97;;;28.60;99.90;;;;;;5011566;28;20156;-49
2023/08/07 07:21:12;;;;;;;6.68;2.83;;;28.60;99.90;;;;;;5011072;28;20109;-49
2023/08/07 07:23:37;;;;;;;6.97;3.67;;;28.60;99.90;;;;;;5011321;28;20030;-49
2023/08/07 07:26:03;;;;;;;7.32;2.88;;;28.70;99.90;;;;;;5009709;28;20038;-49
2023/08/07 07:28:29;;;;;;;4.45;1.63;;;28.70;99.90;;;;;;5011557;28;20022;-49
2023/08/07 07:30:55;;;;;;;7.10;1.60;;;28.70;99.90;;;;;;5011328;28;20026;-49
2023/08/07 07:33:20;;;;;;;6.25;1.40;;;28.70;99.90;;;;;;5011648;28;20076;-50
2023/08/07 07:35:46;;;;;;;8.30;1.80;;;28.80;99.90;;;;;;5011064;28;20036;-49
2023/08/07 07:38:12;;;;;;;4.93;1.48;;;28.80;99.90;;;;;;5011445;28;20939;-49
2023/08/07 07:40:38;;;;;;;3.65;2.10;;;28.80;99.90;;;;;;5010975;28;20436;-50
2023/08/07 07:43:03;;;;;;;3.65;1.52;;;28.80;99.90;;;;;;5011092;28;20105;-50
2023/08/07 07:45:29;;;;;;;7.18;1.75;;;28.90;99.90;;;;;;5015179;28;20041;-50
2023/08/07 07:47:55;;;;;;;3.67;2.00;;;28.90;99.90;;;;;;5014874;28;20026;-50
2023/08/07 07:50:21;;;;;;;6.20;2.25;;;28.90;99.90;;;;;;5015349;28;20021;-50
2023/08/07 07:52:47;;;;;;;4.32;1.10;;;28.90;99.90;;;;;;5015184;28;20536;-49
2023/08/07 07:55:13;;;;;;;7.82;1.90;;;28.90;99.90;;;;;;5006805;28;20058;-50
2023/08/07 07:57:40;;;;;;;4.15;1.50;;;29.00;99.90;;;;;;5010181;28;20137;-49
2023/08/07 08:00:10;;;;;;;7.35;1.60;;;29.00;99.90;;;;;;5015301;28;20061;-50
2023/08/07 08:02:36;;;;;;;4.53;1.40;;;29.00;99.90;;;;;;5000606;28;20057;-49
2023/08/07 08:05:02;;;;;;;5.97;1.27;;;29.10;99.90;;;;;;5014959;28;20042;-49
2023/08/07 08:07:28;;;;;;;6.53;1.42;;;29.10;99.90;;;;;;5014887;28;20080;-49
2023/08/07 08:09:54;;;;;;;8.75;1.40;;;29.10;99.90;;;;;;5015093;28;20425;-50
2023/08/07 08:12:21;;;;;;;6.97;1.40;;;29.10;99.90;;;;;;5015318;28;20112;-49
2023/08/07 08:14:47;;;;;;;6.45;2.63;;;29.20;99.90;;;;;;5010203;28;20106;-49
2023/08/07 08:17:14;;;;;;;6.38;1.83;;;29.20;99.90;;;;;;5006894;28;20105;-49
2023/08/07 08:19:39;;;;;;;9.98;1.98;;;29.20;99.90;;;;;;5014808;28;20021;-49
2023/08/07 08:22:05;;;;;;;5.47;1.48;;;29.20;99.90;;;;;;5013568;28;20022;-49
2023/08/07 08:24:31;;;;;;;6.93;1.27;;;29.20;99.90;;;;;;5014269;28;20040;-49
2023/08/07 08:26:57;;;;;;;6.32;3.58;;;29.20;99.90;;;;;;5014736;28;20084;-49
2023/08/07 08:29:23;;;;;;;5.18;2.30;;;29.20;99.90;;;;;;5014628;28;20026;-49
2023/08/07 08:31:51;;;;;;;6.32;2.55;;;29.20;99.90;;;;;;5014533;28;20014;-49
2023/08/07 08:34:16;;;;;;;3.30;1.33;;;29.30;99.90;;;;;;5012962;28;20025;-51
2023/08/07 08:36:42;;;;;;;4.93;1.55;;;29.30;99.90;;;;;;5014459;28;20026;-51
2023/08/07 08:39:08;;;;;;;6.80;2.13;;;29.20;99.90;;;;;;5014278;28;20109;-50
2023/08/07 08:41:34;;;;;;;5.82;1.58;;;29.20;99.90;;;;;;5014456;28;20037;-51
2023/08/07 08:44:03;;;;;;;4.35;1.13;;;29.20;99.90;;;;;;5014356;28;20117;-51
2023/08/07 08:46:30;;;;;;;7.03;2.20;;;29.10;99.90;;;;;;5014364;28;20036;-51
2023/08/07 08:48:58;;;;;;;4.80;1.42;;;29.10;99.90;;;;;;5014302;28;20109;-52
2023/08/07 08:51:25;;;;;;;5.95;1.40;;;29.10;99.90;;;;;;5014457;28;20030;-50
2023/08/07 08:53:53;;;;;;;3.45;1.33;;;29.10;99.90;;;;;;5014007;28;20022;-50
2023/08/07 08:56:22;;;;;;;7.03;1.85;;;29.10;99.90;;;;;;5012896;28;20033;-50
2023/08/07 08:58:49;;;;;;;11.10;3.47;;;29.10;99.90;;;;;;5013866;28;20113;-50
2023/08/07 09:01:17;;;;;;;;;;;29.10;99.90;;;;;;5014503;28;20077;-51
2023/08/07 09:03:43;;;;;;;;;;;29.10;99.90;;;;;;5014167;28;19906;-51
2023/08/07 09:06:10;;;;;;;7.90;1.45;;;29.20;99.90;;;;;;4994825;28;19936;-51
2023/08/07 09:08:37;;;;;;;7.25;1.45;;;29.20;99.90;;;;;;5006070;28;20500;-51
2023/08/07 09:11:04;;;;;;;6.95;1.50;;;29.20;99.90;;;;;;5013640;28;20018;-50
2023/08/07 09:13:33;;;;;;;5.25;1.90;;;29.30;99.90;;;;;;5013769;28;20022;-51
2023/08/07 09:16:00;;;;;;;6.97;2.63;;;29.30;99.90;;;;;;5013396;28;20026;-51
2023/08/07 09:18:26;;;;;;;5.85;1.13;;;29.40;99.90;;;;;;5013789;28;20022;-51
2023/08/07 09:20:52;;;;;;;5.55;1.40;;;29.40;99.90;;;;;;5012945;28;20021;-51
2023/08/07 09:23:18;;;;;;;4.90;1.52;;;29.50;99.90;;;;;;5013821;28;20028;-51
2023/08/07 09:25:44;;;;;;;9.50;2.58;;;29.50;99.90;;;;;;5013191;28;20401;-52
2023/08/07 09:28:10;;;;;;;6.07;1.55;;;29.50;99.90;;;;;;5013701;28;20485;-51
2023/08/07 09:30:37;;;;;;;11.68;1.77;;;29.50;99.90;;;;;;5013485;28;20129;-50
2023/08/07 09:33:04;;;;;;;4.85;1.50;;;29.50;99.90;;;;;;5013342;28;20025;-51
2023/08/07 09:35:31;;;;;;;8.70;1.42;;;29.50;99.90;;;;;;5013399;28;20462;-51
2023/08/07 09:37:57;;;;;;;3.53;1.55;;;29.50;99.90;;;;;;5013961;28;20377;-51
2023/08/07 09:40:23;;;;;;;7.10;1.40;;;29.50;99.90;;;;;;5013353;28;20488;-51
2023/08/07 09:42:53;;;;;;;7.85;1.85;;;29.50;99.90;;;;;;5013409;28;20021;-50
2023/08/07 09:45:24;;;;;;;4.75;1.40;;;29.50;99.90;;;;;;5012786;28;20030;-51
2023/08/07 09:48:03;;;;;;;5.60;1.35;;;29.50;99.90;;;;;;5013297;28;20022;-51
2023/08/07 09:50:30;;;;;;;9.52;2.45;;;29.60;99.90;;;;;;5013281;28;20029;-52
2023/08/07 09:52:57;;;;;;;6.50;1.50;;;29.60;99.90;;;;;;4995401;28;20014;-51
2023/08/07 09:55:24;;;;;;;8.45;1.58;;;29.60;99.90;;;;;;5013181;28;20026;-51
2023/08/07 09:57:50;;;;;;;4.80;1.70;;;29.60;99.90;;;;;;5012655;28;20025;-51
2023/08/07 10:00:19;;;;;;;6.18;1.75;;;29.60;99.90;;;;;;5013046;28;20455;-51
2023/08/07 10:02:49;;;;;;;3.25;1.23;;;29.60;99.90;;;;;;4999146;28;20065;-51
2023/08/07 10:05:15;;;;;;;5.70;1.60;;;29.70;99.90;;;;;;4994847;28;20033;-51
2023/08/07 10:07:41;;;;;;;5.85;1.80;;;29.80;99.90;;;;;;5009870;28;20044;-52
2023/08/07 10:10:08;;;;;;;6.82;1.33;;;29.80;99.90;;;;;;5002027;28;20028;-52
2023/08/07 10:12:34;;;;;;;8.17;1.30;;;29.80;99.90;;;;;;5012980;28;20037;-51
2023/08/07 10:15:00;;;;;;;12.25;2.53;;;29.80;99.90;;;;;;5013040;28;20026;-52
2023/08/07 10:17:27;;;;;;;7.50;1.77;;;29.90;99.90;;;;;;5012718;28;20109;-51
2023/08/07 10:19:53;;;;;;;6.57;1.50;;;29.90;99.90;;;;;;5012239;28;20080;-51
2023/08/07 10:22:19;;;;;;;6.60;1.75;;;30.00;99.90;;;;;;5012392;28;20034;-51
2023/08/07 10:24:48;;;;;;;4.28;1.77;;;30.00;99.90;;;;;;5012274;28;20080;-52
2023/08/07 10:27:18;;;;;;;2.92;1.33;;;30.10;99.90;;;;;;5012672;28;20022;-51
2023/08/07 10:29:49;;;;;;;8.48;1.90;;;30.10;99.90;;;;;;5012392;28;20048;-51
2023/08/07 10:32:17;;;;;;;5.25;1.42;;;30.10;99.90;;;;;;5012393;28;20041;-51
2023/08/07 10:34:49;;;;;;;5.70;1.55;;;30.20;99.90;;;;;;5007479;28;20060;-52
2023/08/07 10:37:42;;;;;;;6.68;1.23;;;30.20;99.90;;;;;;5004501;28;20022;-51
2023/08/07 10:40:10;;;;;;;5.80;0.88;;;30.20;99.90;;;;;;5012562;28;20026;-51
2023/08/07 10:42:56;;;;;;;6.00;2.25;;;30.30;99.90;;;;;;5012056;28;20095;-52
2023/08/07 10:45:23;;;;;;;7.55;1.55;;;30.30;99.90;;;;;;5011629;28;20486;-51
2023/08/07 10:48:13;;;;;;;6.65;1.85;;;30.40;99.90;;;;;;5011819;28;20373;-51
2023/08/07 10:50:54;;;;;;;3.40;1.80;;;30.40;99.90;;;;;;5012284;28;20419;-51
2023/08/07 10:53:21;;;;;;;13.20;5.30;;;30.40;99.90;;;;;;4989898;28;20030;-52
2023/08/07 10:55:48;;;;;;;6.82;1.70;;;30.40;99.90;;;;;;5011878;28;20136;-51
2023/08/07 10:58:38;;;;;;;5.85;1.20;;;30.40;99.90;;;;;;5011931;28;20374;-51
2023/08/07 11:01:34;;;;;;;3.10;1.33;;;30.50;99.90;;;;;;5010007;28;20041;-51
2023/08/07 11:04:06;;;;;;;5.97;1.67;;;30.50;99.90;;;;;;5005184;28;20037;-51
2023/08/07 11:06:34;;;;;;;6.07;1.80;;;30.50;99.90;;;;;;5011959;28;20560;-51
2023/08/07 11:09:03;;;;;;;5.10;1.92;;;30.50;99.90;;;;;;4999502;28;20018;-51
2023/08/07 11:11:30;;;;;;;4.40;1.60;;;30.50;99.90;;;;;;5011446;28;20622;-51
2023/08/07 11:13:55;;;;;;;8.02;1.85;;;30.50;99.90;;;;;;5011796;28;20109;-52
2023/08/07 11:16:22;;;;;;;4.85;1.67;;;30.60;99.90;;;;;;5011747;28;20108;-51
2023/08/07 11:18:49;;;;;;;7.43;1.77;;;30.60;99.90;;;;;;5010821;28;20037;-51
2023/08/07 11:21:15;;;;;;;3.92;1.30;;;30.70;99.90;;;;;;5011612;28;20462;-51
2023/08/07 11:23:41;;;;;;;6.63;1.52;;;30.70;99.90;;;;;;5011314;28;20084;-51
2023/08/07 11:26:09;;;;;;;5.32;1.63;;;30.70;99.90;;;;;;5011311;28;20133;-51
2023/08/07 11:28:35;;;;;;;3.40;1.17;;;30.80;99.90;;;;;;5011860;28;20355;-51
2023/08/07 11:31:01;;;;;;;4.30;1.42;;;30.80;99.90;;;;;;5009685;28;20022;-51
2023/08/07 11:33:28;;;;;;;5.78;1.55;;;30.80;99.90;;;;;;5010565;28;20324;-51
2023/08/07 11:35:54;;;;;;;7.15;1.38;;;30.80;99.90;;;;;;5011750;28;20398;-50
2023/08/07 11:38:30;;;;;;;3.00;1.40;;;30.90;99.90;;;;;;5011439;28;20033;-51
2023/08/07 11:41:01;;;;;;;2.40;1.23;;;30.90;99.90;;;;;;5011159;28;20060;-51
2023/08/07 11:43:30;;;;;;;5.65;1.67;;;30.90;99.90;;;;;;5011344;28;20457;-52
2023/08/07 11:46:02;;;;;;;10.48;1.25;;;31.00;99.90;;;;;;5011240;28;20089;-52
2023/08/07 11:48:29;;;;;;;5.85;1.30;;;31.10;99.90;;;;;;5011410;28;20018;-52
2023/08/07 11:50:56;;;;;;;6.28;1.73;;;31.10;99.90;;;;;;5011174;28;20083;-51
2023/08/07 11:53:33;;;;;;;2.58;0.95;;;31.10;99.90;;;;;;5009907;28;20029;-52
2023/08/07 11:56:01;;;;;;;3.80;1.25;;;31.10;99.90;;;;;;4997904;28;20853;-51
2023/08/07 11:58:37;;;;;;;5.82;1.92;;;31.20;99.90;;;;;;5010971;28;20149;-52
2023/08/07 12:01:22;;;;;;;5.43;2.75;;;31.30;99.90;;;;;;5010935;28;20121;-51
2023/08/07 12:03:55;;;;;;;8.00;1.73;;;31.30;99.90;;;;;;5009633;28;20022;-52
2023/08/07 12:06:21;;;;;;;3.95;1.20;;;31.30;99.90;;;;;;5010922;28;20025;-51
2023/08/07 12:08:52;;;;;;;10.02;1.30;;;31.30;99.90;;;;;;5011165;28;20097;-51
2023/08/07 12:11:18;;;;;;;5.40;1.20;;;31.40;99.90;;;;;;4998110;28;20026;-52
2023/08/07 12:13:45;;;;;;;7.25;1.63;;;31.40;99.90;;;;;;5011036;28;20068;-52
2023/08/07 12:16:15;;;;;;;7.65;1.73;;;31.40;99.90;;;;;;5009860;28;20512;-51
2023/08/07 12:18:49;;;;;;;7.80;1.80;;;31.40;99.90;;;;;;5011064;28;20030;-51
2023/08/07 12:21:18;;;;;;;5.38;1.58;;;31.30;99.90;;;;;;5011047;28;20423;-52
2023/08/07 12:23:47;;;;;;;6.30;2.25;;;31.40;99.90;;;;;;5011212;28;20030;-51
2023/08/07 12:26:13;;;;;;;6.78;1.40;;;31.30;99.90;;;;;;5011039;28;20030;-51
2023/08/07 12:28:39;;;;;;;7.38;1.60;;;31.40;99.90;;;;;;5011343;28;20438;-51
2023/08/07 12:31:06;;;;;;;3.35;1.15;;;31.40;99.90;;;;;;5014264;28;20036;-51
2023/08/07 12:33:32;;;;;;;;;;;31.40;99.90;;;;;;5015241;28;20478;-52
2023/08/07 12:35:59;;;;;;;7.38;1.50;;;31.50;99.90;;;;;;5014567;28;19917;-51
2023/08/07 12:38:25;;;;;;;4.27;1.07;;;31.50;99.90;;;;;;5014723;28;20470;-51
2023/08/07 12:40:51;;;;;;;4.38;1.63;;;31.50;99.90;;;;;;5014517;28;20347;-51
2023/08/07 12:43:16;;;;;;;5.10;1.30;;;31.60;99.90;;;;;;5008525;28;20046;-51
2023/08/07 12:45:42;;;;;;;7.05;1.67;;;31.60;99.90;;;;;;5007825;28;20076;-51
2023/08/07 12:48:08;;;;;;;3.88;1.15;;;31.50;99.90;;;;;;5014422;28;20014;-52